Crystal Springs, California
Current Conditions -  °F | °C
As of 8:53 PM on Sunday 19 Oct 2014 (Local Time) from KTVL Reporting Station
Clear Clear  
Wind Chill: 47°   Ceiling: Unl
Heat Index: 47°   Visibility: 10mi
Dew Point: 31°   Wind: 0mph
Humidity: 54%   Direction: NA
Pressure: 30.06"   Gusts: NA
Location:  38.6924°N, 119.835°W
Report Text: KTVL 200353Z AUTO 00000KT 10SM CLR 08/M01 A3006 RMK AO2 SLP157 T00831006
Loading
Personal Weather Stations






























Interactive Weather Map
Tropical Storm Tracking
New forecast layout! Learn more

10-Day Weather Forecast

Advertisements
Track Severe Weather on mobile